createdAt,value
2023-07-30T00:00:32.397Z,49.7
2023-07-30T00:01:48.695Z,47.6
2023-07-30T00:03:04.999Z,46.5
2023-07-30T00:04:21.287Z,47.6
2023-07-30T00:05:37.588Z,48.5
2023-07-30T00:06:52.881Z,49.6
2023-07-30T00:08:09.173Z,46.8
2023-07-30T00:09:25.474Z,49.7
2023-07-30T00:10:41.769Z,48.1
2023-07-30T00:11:58.059Z,48.3
2023-07-30T00:13:14.348Z,49.1
2023-07-30T00:14:30.647Z,52.5
2023-07-30T00:15:46.937Z,46.5
2023-07-30T00:17:03.236Z,46.4
2023-07-30T00:18:19.540Z,48
2023-07-30T00:19:35.838Z,45.6
2023-07-30T00:20:52.114Z,44.7
2023-07-30T00:22:08.424Z,45.4
2023-07-30T00:23:23.736Z,47.6
2023-07-30T00:24:40.022Z,56.2
2023-07-30T00:25:56.307Z,45.9
2023-07-30T00:27:12.616Z,48.3
2023-07-30T00:28:28.896Z,44.1
2023-07-30T00:29:45.206Z,43.5
2023-07-30T00:32:17.784Z,43.9
2023-07-30T00:33:34.089Z,46.7
2023-07-30T00:34:50.384Z,44.7
2023-07-30T00:36:06.662Z,51
2023-07-30T00:37:22.965Z,46
2023-07-30T00:38:39.258Z,46.2
2023-07-30T00:39:54.558Z,48.9
2023-07-30T00:41:10.851Z,53.4
2023-07-30T00:42:27.162Z,53.1
2023-07-30T00:43:43.440Z,48.3
2023-07-30T00:44:59.751Z,46.2
2023-07-30T00:46:16.036Z,49.1
2023-07-30T00:47:32.322Z,49.4
2023-07-30T00:48:48.627Z,45.7
2023-07-30T00:50:04.929Z,47.6
2023-07-30T00:51:21.222Z,49.9
2023-07-30T00:52:37.500Z,46.8
2023-07-30T00:53:53.806Z,52
2023-07-30T00:55:10.095Z,48.9
2023-07-30T00:56:25.403Z,45.4
2023-07-30T00:57:41.692Z,47
2023-07-30T00:58:57.992Z,48.1
2023-07-30T01:00:14.288Z,46.2
2023-07-30T01:01:30.585Z,46.8
2023-07-30T01:02:46.869Z,45.6
2023-07-30T01:04:03.173Z,47.2
2023-07-30T01:05:19.466Z,47.2
2023-07-30T01:06:35.768Z,45.2
2023-07-30T01:07:52.059Z,47.8
2023-07-30T01:09:08.358Z,47.3
2023-07-30T01:10:24.651Z,48.6
2023-07-30T01:11:40.932Z,44.3
2023-07-30T01:12:56.251Z,44.1
2023-07-30T01:14:12.540Z,45.2
2023-07-30T01:15:28.839Z,46
2023-07-30T01:16:45.119Z,45.9
2023-07-30T01:18:01.414Z,49.9
2023-07-30T01:19:17.720Z,46.8
2023-07-30T01:20:34.021Z,46.7
2023-07-30T01:21:50.307Z,48.3
2023-07-30T01:23:06.610Z,44.1
2023-07-30T01:24:22.898Z,44.1
2023-07-30T01:25:39.191Z,48.9
2023-07-30T01:26:55.476Z,46.8
2023-07-30T01:28:11.778Z,45.1
2023-07-30T01:29:27.081Z,50.7
2023-07-30T01:30:43.378Z,47.3
2023-07-30T01:31:59.668Z,48.9
2023-07-30T01:33:15.977Z,47.5
2023-07-30T01:34:32.258Z,50.1
2023-07-30T01:35:48.565Z,47.2
2023-07-30T01:37:04.854Z,45.7
2023-07-30T01:38:21.150Z,48.3
2023-07-30T01:39:37.433Z,48.5
2023-07-30T01:40:53.743Z,48.6
2023-07-30T01:42:10.029Z,46.8
2023-07-30T01:43:26.322Z,52
2023-07-30T01:44:42.627Z,44.7
2023-07-30T01:45:57.922Z,45.1
2023-07-30T01:47:14.223Z,46.2
2023-07-30T01:48:30.527Z,43.8
2023-07-30T01:49:46.814Z,45.2
2023-07-30T01:51:03.109Z,43.6
2023-07-30T01:52:19.395Z,44.6
2023-07-30T01:53:35.699Z,44.7
2023-07-30T01:54:51.978Z,44.4
2023-07-30T01:56:08.270Z,47
2023-07-30T01:57:24.573Z,48.9
2023-07-30T01:58:40.879Z,45.7
2023-07-30T01:59:57.154Z,45.9
2023-07-30T02:01:13.459Z,46
2023-07-30T02:02:28.763Z,46.5
2023-07-30T02:03:45.066Z,49.3
2023-07-30T02:05:01.354Z,47.8
2023-07-30T02:06:17.643Z,48.1
2023-07-30T02:07:33.951Z,46.5
2023-07-30T02:08:50.243Z,47.3
2023-07-30T02:10:06.525Z,47.5
2023-07-30T02:11:22.835Z,47
2023-07-30T02:12:39.119Z,50.2
2023-07-30T02:13:55.418Z,46.2
2023-07-30T02:15:11.707Z,50.7
2023-07-30T02:16:28.010Z,48.6
2023-07-30T02:17:44.307Z,47.5
2023-07-30T02:18:59.612Z,45.1
2023-07-30T02:20:15.910Z,45.9
2023-07-30T02:21:32.189Z,47.3
2023-07-30T02:22:48.481Z,44.7
2023-07-30T02:24:04.791Z,47.2
2023-07-30T02:25:21.078Z,48.3
2023-07-30T02:26:36.385Z,44.9
2023-07-30T02:27:52.682Z,43.8
2023-07-30T02:29:08.987Z,48
2023-07-30T02:30:25.269Z,45.2
2023-07-30T02:31:41.000Z,47.2
2023-07-30T02:32:57.858Z,46
2023-07-30T02:34:14.158Z,47.3
2023-07-30T02:35:30.461Z,46.2
2023-07-30T02:36:46.744Z,46.2
2023-07-30T02:38:03.046Z,46.2
2023-07-30T02:39:19.340Z,45.2
2023-07-30T02:40:35.629Z,45.2
2023-07-30T02:41:51.924Z,47.6
2023-07-30T02:43:07.243Z,47.3
2023-07-30T02:44:23.532Z,45.7
2023-07-30T02:45:39.810Z,45.9
2023-07-30T02:46:56.114Z,48.9
2023-07-30T02:48:12.416Z,48.9
2023-07-30T02:49:28.710Z,47.2
2023-07-30T02:50:44.989Z,50.4
2023-07-30T02:52:01.297Z,47.2
2023-07-30T02:53:17.578Z,45.7
2023-07-30T02:54:33.879Z,49.7
2023-07-30T02:55:50.169Z,46.5
2023-07-30T02:57:06.462Z,48.3
2023-07-30T02:58:22.752Z,45.7
2023-07-30T02:59:38.081Z,47.3
2023-07-30T03:00:54.365Z,47.8
2023-07-30T03:02:10.662Z,46.2
2023-07-30T03:03:26.947Z,46.4
2023-07-30T03:04:43.244Z,45.2
2023-07-30T03:05:59.538Z,46.8
2023-07-30T03:07:15.843Z,51
2023-07-30T03:08:32.125Z,50.9
2023-07-30T03:09:48.432Z,49.9
2023-07-30T03:11:04.725Z,48.6
2023-07-30T03:12:21.014Z,50.1
2023-07-30T03:13:37.243Z,51.2
2023-07-30T03:14:53.553Z,54.4
2023-07-30T03:16:08.850Z,50.4
2023-07-30T03:17:25.118Z,48.9
2023-07-30T03:18:41.339Z,50.1
2023-07-30T03:19:57.640Z,48.5
2023-07-30T03:21:13.933Z,51.7
2023-07-30T03:22:30.228Z,49.9
2023-07-30T03:23:46.535Z,49.4
2023-07-30T03:25:02.831Z,49.7
2023-07-30T03:26:19.083Z,53.4
2023-07-30T03:27:35.361Z,51.7
2023-07-30T03:28:51.656Z,47.2
2023-07-30T03:30:07.904Z,48.6
2023-07-30T03:31:24.156Z,49.7
2023-07-30T03:32:39.415Z,50.1
2023-07-30T03:33:55.642Z,48
2023-07-30T03:35:11.898Z,47.5
2023-07-30T03:36:28.127Z,48.9
2023-07-30T03:37:44.362Z,50.9
2023-07-30T03:39:00.610Z,57.2
2023-07-30T03:40:16.859Z,53
2023-07-30T03:41:33.083Z,47.5
2023-07-30T03:42:49.326Z,48.5
2023-07-30T03:44:05.565Z,46.7
2023-07-30T03:45:21.802Z,45.7
2023-07-30T03:46:38.056Z,48.9
2023-07-30T03:47:54.299Z,46.8
2023-07-30T03:49:09.543Z,49.7
2023-07-30T03:50:25.785Z,50.4
2023-07-30T03:51:42.018Z,48.9
2023-07-30T03:52:58.257Z,51.7
2023-07-30T03:54:14.502Z,50.1
2023-07-30T03:55:30.741Z,48.3
2023-07-30T03:56:46.994Z,50.5
2023-07-30T03:58:03.223Z,52
2023-07-30T03:59:19.474Z,48.6
2023-07-30T04:00:35.699Z,49.3
2023-07-30T04:01:51.939Z,49.7
2023-07-30T04:03:08.181Z,51.5
2023-07-30T04:04:24.429Z,48.5
2023-07-30T04:05:39.687Z,51.4
2023-07-30T04:06:55.920Z,50.2
2023-07-30T04:08:12.160Z,50.1
2023-07-30T04:09:28.397Z,49.6
2023-07-30T04:10:44.653Z,53.3
2023-07-30T04:12:00.876Z,51.5
2023-07-30T04:13:17.128Z,49.7
2023-07-30T04:14:33.363Z,47.5
2023-07-30T04:15:49.602Z,50.5
2023-07-30T04:17:05.841Z,47.8
2023-07-30T04:18:22.078Z,47.3
2023-07-30T04:19:38.335Z,48.6
2023-07-30T04:20:54.567Z,48
2023-07-30T04:22:09.829Z,47.5
2023-07-30T04:23:26.055Z,48.9
2023-07-30T04:24:42.305Z,48.9
2023-07-30T04:25:58.547Z,46.4
2023-07-30T04:27:14.782Z,48.8
2023-07-30T04:28:31.013Z,48.8
2023-07-30T04:29:47.265Z,48.6
2023-07-30T04:31:03.503Z,47.5
2023-07-30T04:32:19.742Z,46
2023-07-30T04:33:35.983Z,47.5
2023-07-30T04:34:52.232Z,46
2023-07-30T04:36:08.471Z,49.4
2023-07-30T04:37:24.698Z,45.9
2023-07-30T04:38:39.956Z,46.8
2023-07-30T04:39:56.204Z,50.4
2023-07-30T04:41:12.436Z,49.1
2023-07-30T04:42:28.672Z,49.6
2023-07-30T04:43:44.922Z,51.5
2023-07-30T04:45:01.155Z,51.8
2023-07-30T04:46:17.401Z,47
2023-07-30T04:47:33.645Z,48.8
2023-07-30T04:48:49.881Z,48.9
2023-07-30T04:50:06.115Z,51.5
2023-07-30T04:51:22.372Z,48.8
2023-07-30T04:52:38.594Z,49.4
2023-07-30T04:53:54.844Z,48.6
2023-07-30T04:55:10.098Z,48.5
2023-07-30T04:56:26.330Z,49.7
2023-07-30T04:57:42.587Z,49.1
2023-07-30T04:58:58.810Z,45.1
2023-07-30T05:00:15.054Z,46.2
2023-07-30T05:01:31.294Z,48.1
2023-07-30T05:02:47.532Z,46.5
2023-07-30T05:04:03.786Z,46.5
2023-07-30T05:05:20.016Z,47
2023-07-30T05:06:36.254Z,47.8
2023-07-30T05:07:52.493Z,45.7
2023-07-30T05:09:08.745Z,45.7
2023-07-30T05:10:24.975Z,45.2
2023-07-30T05:11:40.226Z,47.3
2023-07-30T05:12:56.483Z,45.7
2023-07-30T05:14:12.709Z,48.1
2023-07-30T05:15:28.945Z,46.2
2023-07-30T05:16:45.198Z,51.7
2023-07-30T05:18:01.445Z,48.5
2023-07-30T05:19:17.669Z,48.3
2023-07-30T05:20:33.913Z,48.6
2023-07-30T05:21:50.157Z,45.7
2023-07-30T05:23:06.392Z,47.8
2023-07-30T05:24:22.631Z,48.3
2023-07-30T05:25:38.880Z,48.6
2023-07-30T05:26:55.111Z,50.1
2023-07-30T05:28:10.367Z,50.9
2023-07-30T05:29:26.620Z,49.4
2023-07-30T05:30:42.864Z,50.4
2023-07-30T05:31:59.096Z,48
2023-07-30T05:33:15.332Z,48.8
2023-07-30T05:34:31.565Z,50.7
2023-07-30T05:35:47.809Z,50.7
2023-07-30T05:37:04.048Z,51.5
2023-07-30T05:38:20.295Z,47.8
2023-07-30T05:39:36.542Z,48.6
2023-07-30T05:40:52.775Z,48.6
2023-07-30T05:42:09.021Z,49.3
2023-07-30T05:43:25.254Z,48.3
2023-07-30T05:44:40.511Z,47
2023-07-30T05:45:56.759Z,47.8
2023-07-30T05:47:13.002Z,45.1
2023-07-30T05:48:29.235Z,47.5
2023-07-30T05:49:45.481Z,46
2023-07-30T05:51:01.711Z,46.5
2023-07-30T05:52:17.957Z,44.6
2023-07-30T05:53:34.195Z,46
2023-07-30T05:54:50.436Z,47.8
2023-07-30T05:56:06.681Z,45.7
2023-07-30T05:57:22.917Z,45.4
2023-07-30T05:58:39.163Z,46.5
2023-07-30T05:59:55.387Z,47.5
2023-07-30T06:01:10.641Z,45.9
2023-07-30T06:02:26.892Z,45.2
2023-07-30T06:03:43.136Z,44.7
2023-07-30T06:04:59.367Z,44.4
2023-07-30T06:06:15.615Z,45.1
2023-07-30T06:07:31.845Z,43.9
2023-07-30T06:08:48.097Z,44.9
2023-07-30T06:10:04.341Z,48.5
2023-07-30T06:11:20.571Z,48.9
2023-07-30T06:12:36.821Z,48.3
2023-07-30T06:13:53.000Z,48.6
2023-07-30T06:15:09.284Z,48.6
2023-07-30T06:16:25.529Z,48.1
2023-07-30T06:17:40.778Z,48.3
2023-07-30T06:18:57.025Z,48.9
2023-07-30T06:20:13.271Z,49.7
2023-07-30T06:21:29.517Z,48.6
2023-07-30T06:22:45.746Z,48.9
2023-07-30T06:24:01.981Z,48.9
2023-07-30T06:25:18.229Z,48.5
2023-07-30T06:26:34.479Z,48.9
2023-07-30T06:27:50.702Z,47
2023-07-30T06:29:06.956Z,46
2023-07-30T06:30:23.188Z,45.9
2023-07-30T06:31:39.427Z,45.2
2023-07-30T06:32:55.672Z,45.4
2023-07-30T06:34:10.930Z,46.4
2023-07-30T06:35:27.166Z,45.4
2023-07-30T06:37:59.656Z,45.6
2023-07-30T06:39:15.894Z,56.2
2023-07-30T06:40:32.121Z,44.6
2023-07-30T06:41:47.378Z,45.6
2023-07-30T06:43:03.625Z,45.4
2023-07-30T06:44:19.861Z,46
2023-07-30T06:45:36.109Z,45.1
2023-07-30T06:46:52.359Z,45.4
2023-07-30T06:48:08.586Z,45.7
2023-07-30T06:49:24.838Z,45.1
2023-07-30T06:50:41.078Z,45.7
2023-07-30T06:51:57.321Z,44.7
2023-07-30T06:53:13.554Z,45.9
2023-07-30T06:54:29.782Z,49.4
2023-07-30T06:55:46.042Z,47.5
2023-07-30T06:57:02.279Z,48.3
2023-07-30T06:58:17.532Z,48.9
2023-07-30T06:59:33.773Z,48.1
2023-07-30T07:00:50.000Z,48.1
2023-07-30T07:02:06.247Z,49.1
2023-07-30T07:03:22.479Z,47.8
2023-07-30T07:04:38.733Z,48.3
2023-07-30T07:05:54.979Z,51.2
2023-07-30T07:07:11.210Z,48.3
2023-07-30T07:08:27.459Z,47.3
2023-07-30T07:09:43.688Z,47.5
2023-07-30T07:10:59.923Z,47.8
2023-07-30T07:12:16.177Z,46.7
2023-07-30T07:13:32.407Z,45.2
2023-07-30T07:14:47.663Z,46.8
2023-07-30T07:16:03.900Z,45.4
2023-07-30T07:17:20.159Z,46.7
2023-07-30T07:18:36.391Z,45.7
2023-07-30T07:19:52.626Z,44.9
2023-07-30T07:21:08.863Z,46
2023-07-30T07:22:25.107Z,46.2
2023-07-30T07:23:41.346Z,45.4
2023-07-30T07:24:57.586Z,45.2
2023-07-30T07:26:13.836Z,45.1
2023-07-30T07:27:30.071Z,45.2
2023-07-30T07:28:46.306Z,46.8
2023-07-30T07:30:02.549Z,45.4
2023-07-30T07:31:17.815Z,45.2
2023-07-30T07:32:34.057Z,46
2023-07-30T07:33:50.285Z,45.7
2023-07-30T07:35:06.529Z,47.8
2023-07-30T07:36:22.770Z,45.9
2023-07-30T07:37:39.012Z,50.7
2023-07-30T07:38:55.258Z,46.5
2023-07-30T07:40:11.491Z,46
2023-07-30T07:41:27.737Z,45.7
2023-07-30T07:42:43.978Z,45.9
2023-07-30T07:44:00.214Z,46.8
2023-07-30T07:45:16.454Z,45.7
2023-07-30T07:46:32.681Z,45.7
2023-07-30T07:47:48.927Z,46
2023-07-30T07:49:04.195Z,45.9
2023-07-30T07:50:20.417Z,45.2
2023-07-30T07:51:36.674Z,47
2023-07-30T07:52:52.901Z,46.2
2023-07-30T07:54:09.147Z,45.6
2023-07-30T07:55:25.385Z,48.6
2023-07-30T07:56:41.633Z,47.8
2023-07-30T07:57:57.857Z,47.8
2023-07-30T07:59:14.102Z,48.1
2023-07-30T08:00:30.355Z,47.8
2023-07-30T08:01:46.577Z,47.3
2023-07-30T08:03:02.817Z,48.3
2023-07-30T08:04:19.061Z,48.9
2023-07-30T08:05:34.330Z,48.9
2023-07-30T08:06:50.571Z,48.3
2023-07-30T08:08:06.810Z,48.5
2023-07-30T08:09:23.044Z,47.5
2023-07-30T08:10:39.274Z,47.6
2023-07-30T08:11:55.532Z,47.8
2023-07-30T08:13:11.770Z,46.7
2023-07-30T08:14:28.008Z,46.5
2023-07-30T08:15:44.243Z,48.5
2023-07-30T08:17:00.476Z,46.2
2023-07-30T08:18:16.721Z,46.2
2023-07-30T08:19:32.966Z,45.1
2023-07-30T08:20:49.198Z,45.6
2023-07-30T08:22:04.468Z,46.8
2023-07-30T08:23:20.700Z,45.9
2023-07-30T08:25:53.173Z,45.9
2023-07-30T08:27:09.427Z,45.2
2023-07-30T08:28:25.669Z,45.6
2023-07-30T08:29:41.910Z,45.6
2023-07-30T08:30:58.134Z,46.7
2023-07-30T08:32:14.389Z,45.7
2023-07-30T08:33:30.629Z,46.8
2023-07-30T08:34:46.872Z,47.3
2023-07-30T08:36:03.105Z,46.8
2023-07-30T08:37:19.341Z,47
2023-07-30T08:38:34.599Z,46.2
2023-07-30T08:39:50.834Z,46.7
2023-07-30T08:41:07.072Z,45.7
2023-07-30T08:42:23.318Z,46.2
2023-07-30T08:43:39.565Z,45.7
2023-07-30T08:44:55.797Z,46.7
2023-07-30T08:46:12.037Z,46
2023-07-30T08:47:28.271Z,46.2
2023-07-30T08:48:44.520Z,46
2023-07-30T08:50:00.773Z,46.4
2023-07-30T08:51:17.016Z,47
2023-07-30T08:52:33.247Z,46.4
2023-07-30T08:53:49.500Z,47.6
2023-07-30T08:55:04.755Z,46.8
2023-07-30T08:56:20.981Z,46.2
2023-07-30T08:57:37.231Z,45.2
2023-07-30T08:58:53.471Z,45.7
2023-07-30T09:00:09.706Z,46.2
2023-07-30T09:01:25.944Z,47
2023-07-30T09:02:42.199Z,47.6
2023-07-30T09:03:58.428Z,47.8
2023-07-30T09:05:14.672Z,48.5
2023-07-30T09:06:30.919Z,47.3
2023-07-30T09:07:47.155Z,45.7
2023-07-30T09:09:03.394Z,46.4
2023-07-30T09:10:19.635Z,46.5
2023-07-30T09:11:34.883Z,45.6
2023-07-30T09:12:51.140Z,45.7
2023-07-30T09:14:07.372Z,45.9
2023-07-30T09:15:23.615Z,45.2
2023-07-30T09:16:39.858Z,45.2
2023-07-30T09:17:56.098Z,46.7
2023-07-30T09:19:12.342Z,46.5
2023-07-30T09:20:28.577Z,56.7
2023-07-30T09:21:44.810Z,45.6
2023-07-30T09:23:01.071Z,47.2
2023-07-30T09:24:17.305Z,45.7
2023-07-30T09:25:33.547Z,45.2
2023-07-30T09:26:49.798Z,47.3
2023-07-30T09:28:05.050Z,51.4
2023-07-30T09:29:21.291Z,48
2023-07-30T09:30:37.545Z,47.5
2023-07-30T09:31:53.799Z,46
2023-07-30T09:33:10.038Z,47.5
2023-07-30T09:34:26.276Z,45.6
2023-07-30T09:35:42.511Z,46
2023-07-30T09:36:58.751Z,48.6
2023-07-30T09:38:14.981Z,46.5
2023-07-30T09:39:31.227Z,46.5
2023-07-30T09:40:47.460Z,46.2
2023-07-30T09:42:03.706Z,83.7
2023-07-30T09:43:19.963Z,84.2
2023-07-30T09:44:35.217Z,84.5
2023-07-30T09:45:51.448Z,84.5
2023-07-30T09:47:07.693Z,84.9
2023-07-30T09:48:23.940Z,84.7
2023-07-30T09:49:40.170Z,84.2
2023-07-30T09:50:56.423Z,84.4
2023-07-30T09:52:12.671Z,84.5
2023-07-30T09:53:28.913Z,84.9
2023-07-30T09:54:45.151Z,85
2023-07-30T09:56:01.403Z,84.5
2023-07-30T09:57:17.640Z,83.9
2023-07-30T09:58:33.882Z,84.4
2023-07-30T09:59:50.137Z,83.6
2023-07-30T10:01:05.398Z,83.9
2023-07-30T10:02:21.621Z,84.9
2023-07-30T10:03:37.885Z,84.2
2023-07-30T10:04:54.114Z,84.5
2023-07-30T10:06:10.345Z,84.5
2023-07-30T10:07:26.593Z,84.4
2023-07-30T10:08:42.826Z,46.5
2023-07-30T10:09:59.063Z,47.5
2023-07-30T10:11:15.309Z,46.7
2023-07-30T10:12:31.545Z,46
2023-07-30T10:13:47.784Z,46.2
2023-07-30T10:15:04.021Z,48.6
2023-07-30T10:16:20.269Z,48.6
2023-07-30T10:17:35.531Z,48.1
2023-07-30T10:18:51.766Z,48.9
2023-07-30T10:20:08.012Z,45.2
2023-07-30T10:21:24.244Z,45.4
2023-07-30T10:22:40.481Z,46.5
2023-07-30T10:23:56.727Z,46.5
2023-07-30T10:25:12.982Z,45.2
2023-07-30T10:26:29.228Z,48.3
2023-07-30T10:27:45.475Z,47.8
2023-07-30T10:29:01.719Z,45.2
2023-07-30T10:30:17.941Z,45.1
2023-07-30T10:31:34.195Z,44.3
2023-07-30T10:32:50.438Z,44.9
2023-07-30T10:34:05.682Z,46.8
2023-07-30T10:35:21.949Z,47.2
2023-07-30T10:36:38.189Z,47.8
2023-07-30T10:37:54.422Z,46.4
2023-07-30T10:39:10.654Z,46.5
2023-07-30T10:40:26.904Z,45.1
2023-07-30T10:41:43.137Z,46.2
2023-07-30T10:42:59.370Z,48.1
2023-07-30T10:44:15.619Z,49.3
2023-07-30T10:45:31.852Z,46.5
2023-07-30T10:46:48.100Z,46.8
2023-07-30T10:48:04.347Z,46.2
2023-07-30T10:49:20.600Z,46.2
2023-07-30T10:50:35.844Z,46
2023-07-30T10:51:52.098Z,45.7
2023-07-30T10:53:08.334Z,46.8
2023-07-30T10:54:24.563Z,47
2023-07-30T10:55:40.809Z,48.5
2023-07-30T10:56:56.083Z,45.2
2023-07-30T10:58:12.329Z,47.5
2023-07-30T10:59:28.565Z,47.5
2023-07-30T11:00:44.805Z,47.8
2023-07-30T11:02:01.044Z,44.9
2023-07-30T11:03:17.277Z,59.9
2023-07-30T11:04:33.527Z,45.6
2023-07-30T11:05:49.753Z,46.5
2023-07-30T11:07:06.000Z,48.5
2023-07-30T11:08:22.234Z,44.7
2023-07-30T11:09:38.484Z,45.2
2023-07-30T11:10:54.743Z,45.7
2023-07-30T11:12:10.972Z,46.2
2023-07-30T11:13:26.224Z,45.9
2023-07-30T11:14:42.470Z,44.7
2023-07-30T11:15:58.714Z,45.4
2023-07-30T11:17:14.955Z,46
2023-07-30T11:18:31.186Z,48.3
2023-07-30T11:19:47.440Z,51.4
2023-07-30T11:21:03.669Z,52
2023-07-30T11:22:19.902Z,47.8
2023-07-30T11:23:36.162Z,46.5
2023-07-30T11:24:52.384Z,49.4
2023-07-30T11:26:08.627Z,45.7
2023-07-30T11:27:24.880Z,46.2
2023-07-30T11:28:41.104Z,47
2023-07-30T11:29:56.367Z,44.3
2023-07-30T11:31:12.612Z,46
2023-07-30T11:32:28.842Z,45.2
2023-07-30T11:33:45.091Z,47.8
2023-07-30T11:35:01.329Z,45.7
2023-07-30T11:36:17.574Z,82.8
2023-07-30T11:37:33.811Z,82.5
2023-07-30T11:38:50.044Z,82.5
2023-07-30T11:41:22.540Z,82.8
2023-07-30T11:42:38.783Z,82.8
2023-07-30T11:43:55.023Z,83.3
2023-07-30T11:45:11.265Z,82.6
2023-07-30T11:46:26.521Z,82.5
2023-07-30T11:47:42.771Z,82.8
2023-07-30T11:48:59.008Z,82.3
2023-07-30T11:50:15.250Z,83.1
2023-07-30T11:51:31.477Z,82.6
2023-07-30T11:52:47.729Z,82.5
2023-07-30T11:54:03.953Z,82.5
2023-07-30T11:55:20.198Z,82.6
2023-07-30T11:56:36.454Z,82.8
2023-07-30T11:57:52.688Z,82.8
2023-07-30T11:59:08.937Z,83.3
2023-07-30T12:00:25.168Z,82.5
2023-07-30T12:01:41.407Z,82.9
2023-07-30T12:02:56.673Z,82.8
2023-07-30T12:04:12.917Z,82.5
2023-07-30T12:05:29.160Z,82.9
2023-07-30T12:06:45.396Z,82.8
2023-07-30T12:08:01.633Z,82.6
2023-07-30T12:09:17.875Z,82.1
2023-07-30T12:10:34.108Z,82.9
2023-07-30T12:11:50.356Z,82.8
2023-07-30T12:13:06.587Z,82.8
2023-07-30T12:14:22.825Z,82.6
2023-07-30T12:15:39.084Z,82.6
2023-07-30T12:16:55.325Z,82.9
2023-07-30T12:18:11.558Z,82.8
2023-07-30T12:19:26.817Z,82.8
2023-07-30T12:20:43.047Z,82.3
2023-07-30T12:21:59.301Z,82.9
2023-07-30T12:23:15.544Z,43.9
2023-07-30T12:24:31.777Z,44.6
2023-07-30T12:25:48.023Z,43.1
2023-07-30T12:27:04.263Z,47.6
2023-07-30T12:28:20.507Z,43.9
2023-07-30T12:29:36.749Z,43.1
2023-07-30T12:30:52.985Z,44.6
2023-07-30T12:32:09.226Z,42.7
2023-07-30T12:33:25.456Z,43.1
2023-07-30T12:34:41.708Z,43.8
2023-07-30T12:35:56.962Z,43.9
2023-07-30T12:37:13.206Z,43
2023-07-30T12:38:29.439Z,42.7
2023-07-30T12:39:45.689Z,43.1
2023-07-30T12:41:01.914Z,42.5
2023-07-30T12:42:18.154Z,43.1
2023-07-30T12:43:34.412Z,43
2023-07-30T12:44:50.651Z,42.8
2023-07-30T12:46:06.880Z,44.3
2023-07-30T12:47:23.129Z,42.7
2023-07-30T12:48:39.376Z,43
2023-07-30T12:49:55.612Z,43.9
2023-07-30T12:51:11.852Z,49.1
2023-07-30T12:52:27.097Z,42.2
2023-07-30T12:53:43.342Z,42.7
2023-07-30T12:54:59.577Z,45.2
2023-07-30T12:56:15.824Z,47.2
2023-07-30T12:57:32.057Z,45.1
2023-07-30T12:58:48.310Z,43
2023-07-30T13:00:04.536Z,43.8
2023-07-30T13:01:20.782Z,43.9
2023-07-30T13:02:37.030Z,43.3
2023-07-30T13:03:53.266Z,43.5
2023-07-30T13:05:09.501Z,42.8
2023-07-30T13:06:25.748Z,43
2023-07-30T13:07:41.982Z,44.1
2023-07-30T13:08:57.246Z,47.8
2023-07-30T13:10:13.471Z,47.3
2023-07-30T13:11:29.731Z,45.7
2023-07-30T13:12:45.958Z,44.9
2023-07-30T13:14:02.211Z,48.6
2023-07-30T13:15:18.441Z,52.6
2023-07-30T13:16:34.673Z,48.5
2023-07-30T13:17:50.928Z,54.6
2023-07-30T13:19:07.156Z,53.4
2023-07-30T13:20:23.395Z,48.6
2023-07-30T13:21:39.648Z,48.9
2023-07-30T13:22:55.883Z,51.5
2023-07-30T13:24:12.127Z,51.8
2023-07-30T13:25:27.373Z,48.5
2023-07-30T13:26:43.620Z,46.2
2023-07-30T13:27:59.858Z,46.5
2023-07-30T13:29:16.093Z,48.9
2023-07-30T13:30:32.334Z,48.3
2023-07-30T13:31:48.589Z,46.8
2023-07-30T13:33:04.815Z,49.1
2023-07-30T13:34:21.062Z,45.2
2023-07-30T13:35:37.000Z,45.6
2023-07-30T13:36:53.548Z,45.2
2023-07-30T13:38:09.791Z,47.2
2023-07-30T13:39:26.020Z,45.1
2023-07-30T13:40:42.256Z,45.1
2023-07-30T13:41:57.000Z,48.3
2023-07-30T13:43:13.761Z,44.7
2023-07-30T13:44:29.997Z,47
2023-07-30T13:45:46.239Z,48.8
2023-07-30T13:47:02.490Z,47.6
2023-07-30T13:48:18.718Z,45.2
2023-07-30T13:49:34.952Z,50.1
2023-07-30T13:52:07.437Z,48.3
2023-07-30T13:53:23.679Z,46.4
2023-07-30T13:54:39.931Z,46
2023-07-30T13:55:56.169Z,43.8
2023-07-30T13:57:12.410Z,44.7
2023-07-30T13:58:27.659Z,46.4
2023-07-30T13:59:43.893Z,48.1
2023-07-30T14:01:00.148Z,45.6
2023-07-30T14:02:16.372Z,48.5
2023-07-30T14:03:32.629Z,48.9
2023-07-30T14:04:48.870Z,45.4
2023-07-30T14:06:05.096Z,46
2023-07-30T14:07:21.341Z,46.8
2023-07-30T14:08:37.578Z,49.1
2023-07-30T14:09:53.820Z,47.2
2023-07-30T14:11:10.068Z,46.2
2023-07-30T14:12:26.310Z,44.4
2023-07-30T14:13:42.540Z,45.6
2023-07-30T14:14:57.791Z,48.9
2023-07-30T14:16:14.044Z,50.1
2023-07-30T14:17:30.280Z,52.3
2023-07-30T14:18:46.517Z,48
2023-07-30T14:20:02.770Z,43.8
2023-07-30T14:21:19.006Z,47.5
2023-07-30T14:22:35.250Z,46.5
2023-07-30T14:23:51.482Z,47.5
2023-07-30T14:25:07.716Z,45.6
2023-07-30T14:26:23.969Z,44.1
2023-07-30T14:27:40.205Z,47.2
2023-07-30T14:28:56.449Z,44.1
2023-07-30T14:30:12.685Z,46
2023-07-30T14:31:27.941Z,47.3
2023-07-30T14:32:44.187Z,46.5
2023-07-30T14:34:00.425Z,43.8
2023-07-30T14:35:16.663Z,44.4
2023-07-30T14:36:32.905Z,47
2023-07-30T14:37:49.128Z,45.4
2023-07-30T14:39:05.398Z,44.7
2023-07-30T14:40:21.611Z,44.7
2023-07-30T14:41:37.850Z,45.2
2023-07-30T14:42:54.092Z,45.6
2023-07-30T14:44:10.329Z,47.2
2023-07-30T14:45:26.579Z,47.5
2023-07-30T14:46:42.826Z,47.5
2023-07-30T14:47:58.084Z,44.6
2023-07-30T14:49:14.318Z,50.4
2023-07-30T14:50:30.559Z,44.9
2023-07-30T14:51:46.824Z,45.2
2023-07-30T14:53:03.025Z,43.1
2023-07-30T14:54:19.268Z,46.7
2023-07-30T14:55:35.508Z,46
2023-07-30T14:56:51.761Z,43.1
2023-07-30T14:58:08.000Z,45.6
2023-07-30T14:59:24.246Z,44.4
2023-07-30T15:00:40.485Z,44.7
2023-07-30T15:01:56.710Z,44.6
2023-07-30T15:03:12.948Z,46
2023-07-30T15:04:28.215Z,47.5
2023-07-30T15:05:44.463Z,58
2023-07-30T15:07:00.713Z,60.2
2023-07-30T15:08:16.927Z,57.2
2023-07-30T15:09:33.167Z,51.5
2023-07-30T15:10:49.406Z,52.5
2023-07-30T15:12:04.672Z,54.7
2023-07-30T15:13:20.919Z,54.3
2023-07-30T15:14:37.159Z,51.7
2023-07-30T15:15:53.397Z,50.1
2023-07-30T15:17:09.631Z,53.4
2023-07-30T15:18:25.879Z,49.1
2023-07-30T15:19:42.113Z,54.1
2023-07-30T15:20:58.363Z,47.6
2023-07-30T15:22:14.591Z,50.2
2023-07-30T15:23:30.837Z,48.9
2023-07-30T15:24:47.085Z,51
2023-07-30T15:26:03.315Z,53
2023-07-30T15:27:19.548Z,53.1
2023-07-30T15:28:34.816Z,54.1
2023-07-30T15:29:51.044Z,54.1
2023-07-30T15:31:07.292Z,56.3
2023-07-30T15:32:23.543Z,57
2023-07-30T15:33:39.772Z,57.8
2023-07-30T15:34:56.021Z,60.2
2023-07-30T15:36:12.250Z,60.9
2023-07-30T15:37:28.490Z,58.6
2023-07-30T15:38:44.734Z,56.3
2023-07-30T15:40:00.978Z,55.5
2023-07-30T15:41:17.224Z,57.8
2023-07-30T15:42:33.460Z,60.7
2023-07-30T15:43:49.690Z,56.3
2023-07-30T15:45:04.951Z,56.7
2023-07-30T15:46:21.191Z,60.9
2023-07-30T15:47:37.436Z,60.1
2023-07-30T15:48:53.682Z,60.5
2023-07-30T15:50:09.916Z,62.5
2023-07-30T15:51:26.156Z,66.8
2023-07-30T15:52:42.398Z,65
2023-07-30T15:53:58.636Z,68.3
2023-07-30T15:55:14.866Z,66.5
2023-07-30T15:56:31.104Z,73.4
2023-07-30T15:57:47.355Z,67.1
2023-07-30T15:59:03.589Z,69.9
2023-07-30T16:00:19.837Z,67
2023-07-30T16:01:35.090Z,63.3
2023-07-30T16:02:51.330Z,58.4
2023-07-30T16:04:07.577Z,58
2023-07-30T16:05:23.805Z,58.8
2023-07-30T16:06:40.047Z,55.1
2023-07-30T16:07:56.282Z,52.8
2023-07-30T16:09:12.524Z,51.4
2023-07-30T16:10:28.770Z,50.7
2023-07-30T16:11:45.020Z,50.5
2023-07-30T16:13:01.257Z,51.5
2023-07-30T16:14:17.495Z,49.7
2023-07-30T16:15:33.735Z,49.7
2023-07-30T16:16:49.976Z,50.1
2023-07-30T16:18:05.224Z,50.1
2023-07-30T16:19:21.463Z,52.8
2023-07-30T16:20:37.713Z,53
2023-07-30T16:21:53.939Z,50.7
2023-07-30T16:23:10.182Z,48.1
2023-07-30T16:24:26.436Z,49.4
2023-07-30T16:25:42.676Z,48.6
2023-07-30T16:26:58.910Z,48.3
2023-07-30T16:28:15.147Z,47.8
2023-07-30T16:29:31.389Z,48.5
2023-07-30T16:30:47.631Z,47.6
2023-07-30T16:32:03.880Z,47.5
2023-07-30T16:33:20.108Z,49.6
2023-07-30T16:34:35.361Z,48.5
2023-07-30T16:37:07.856Z,48.1
2023-07-30T16:38:24.081Z,49.6
2023-07-30T16:39:40.320Z,48.1
2023-07-30T16:40:56.564Z,48.6
2023-07-30T16:42:12.807Z,48.6
2023-07-30T16:43:29.044Z,49.1
2023-07-30T16:44:45.290Z,48.5
2023-07-30T16:46:01.521Z,48.3
2023-07-30T16:47:17.773Z,49.1
2023-07-30T16:48:34.010Z,47.8
2023-07-30T16:49:50.247Z,48.5
2023-07-30T16:51:05.503Z,48.6
2023-07-30T16:52:21.736Z,59.1
2023-07-30T16:53:37.987Z,48.8
2023-07-30T16:54:54.236Z,48.9
2023-07-30T16:56:10.468Z,48.1
2023-07-30T16:57:26.715Z,48.3
2023-07-30T16:59:59.181Z,49.1
2023-07-30T17:01:15.423Z,48.9
2023-07-30T17:02:31.660Z,48.5
2023-07-30T17:03:47.913Z,48.3
2023-07-30T17:05:04.157Z,49.7
2023-07-30T17:06:20.379Z,50.5
2023-07-30T17:07:35.654Z,48.5
2023-07-30T17:08:51.896Z,48.1